createdAt,value
2023-01-17T00:01:59.589Z,96.81
2023-01-17T00:04:44.691Z,96.81
2023-01-17T00:07:32.283Z,97.03
2023-01-17T00:10:00.904Z,96.96
2023-01-17T00:12:30.852Z,96.75
2023-01-17T00:14:59.647Z,96.83
2023-01-17T00:17:28.571Z,96.97
2023-01-17T00:20:13.553Z,97.21
2023-01-17T00:22:58.609Z,97.36
2023-01-17T00:25:45.908Z,97.55
2023-01-17T00:28:12.498Z,97.62
2023-01-17T00:30:38.466Z,97.46
2023-01-17T00:33:04.369Z,97.84
2023-01-17T00:35:32.108Z,98.09
2023-01-17T00:38:06.195Z,98.12
2023-01-17T00:40:32.970Z,98.05
2023-01-17T00:43:17.519Z,97.82
2023-01-17T00:46:03.394Z,97.83
2023-01-17T00:48:48.447Z,98.01
2023-01-17T00:51:33.244Z,98.10
2023-01-17T00:54:19.034Z,98.26
2023-01-17T00:57:04.095Z,98.25
2023-01-17T00:59:48.967Z,98.12
2023-01-17T01:02:34.376Z,98.27
2023-01-17T01:05:19.419Z,98.23
2023-01-17T01:08:04.252Z,98.31
2023-01-17T01:10:49.489Z,98.72
2023-01-17T01:13:34.491Z,98.44
2023-01-17T01:16:22.197Z,98.65
2023-01-17T01:19:07.861Z,98.54
2023-01-17T01:21:52.778Z,98.74
2023-01-17T01:24:37.760Z,98.96
2023-01-17T01:27:22.267Z,98.98
2023-01-17T01:30:07.189Z,99.03
2023-01-17T01:32:54.899Z,99.15
2023-01-17T01:35:22.239Z,99.36
2023-01-17T01:37:49.340Z,99.43
2023-01-17T01:40:19.851Z,99.07
2023-01-17T01:42:53.713Z,98.97
2023-01-17T01:45:23.286Z,99.29
2023-01-17T01:47:52.606Z,99.28
2023-01-17T01:50:21.463Z,99.23
2023-01-17T01:52:54.022Z,99.63
2023-01-17T01:55:25.431Z,99.35
2023-01-17T01:57:59.667Z,99.45
2023-01-17T02:00:30.987Z,99.31
2023-01-17T02:03:00.990Z,99.33
2023-01-17T02:05:30.328Z,99.46
2023-01-17T02:08:03.782Z,99.45
2023-01-17T02:10:32.242Z,99.24
2023-01-17T02:12:59.750Z,99.15
2023-01-17T02:15:37.606Z,99.26
2023-01-17T02:18:16.629Z,98.87
2023-01-17T02:21:22.415Z,99.32
2023-01-17T02:24:15.545Z,99.33
2023-01-17T02:27:05.844Z,99.25
2023-01-17T02:30:19.918Z,99.13
2023-01-17T02:33:01.415Z,98.85
2023-01-17T02:35:36.233Z,98.82
2023-01-17T02:38:13.579Z,99.00
2023-01-17T02:40:44.333Z,99.15
2023-01-17T02:43:15.627Z,99.07
2023-01-17T02:45:43.873Z,99.28
2023-01-17T02:48:14.714Z,99.42
2023-01-17T02:51:04.646Z,99.16
2023-01-17T02:53:45.078Z,99.10
2023-01-17T02:56:25.711Z,99.19
2023-01-17T02:59:07.646Z,99.00
2023-01-17T03:01:45.184Z,98.90
2023-01-17T03:04:19.436Z,98.83
2023-01-17T03:06:53.842Z,98.88
2023-01-17T03:09:22.441Z,98.73
2023-01-17T03:11:50.204Z,98.59
2023-01-17T03:14:17.346Z,98.40
2023-01-17T03:16:44.854Z,98.20
2023-01-17T03:19:14.891Z,98.40
2023-01-17T03:21:42.181Z,98.38
2023-01-17T03:24:10.051Z,98.34
2023-01-17T03:26:37.310Z,98.44
2023-01-17T03:29:05.340Z,98.31
2023-01-17T03:31:32.352Z,98.35
2023-01-17T03:33:59.428Z,98.32
2023-01-17T03:36:26.518Z,98.32
2023-01-17T03:38:53.651Z,98.21
2023-01-17T03:41:20.983Z,98.01
2023-01-17T03:43:48.332Z,97.81
2023-01-17T03:46:23.589Z,98.04
2023-01-17T03:48:51.494Z,97.94
2023-01-17T03:51:19.141Z,97.88
2023-01-17T03:53:47.487Z,97.76
2023-01-17T03:56:14.846Z,97.83
2023-01-17T03:58:42.060Z,97.65
2023-01-17T04:01:09.182Z,97.64
2023-01-17T04:03:36.582Z,97.66
2023-01-17T04:06:03.584Z,97.46
2023-01-17T04:08:30.837Z,97.47
2023-01-17T04:10:57.975Z,97.18
2023-01-17T04:13:25.141Z,97.36
2023-01-17T04:15:52.763Z,97.15
2023-01-17T04:18:23.234Z,97.09
2023-01-17T04:20:50.898Z,96.95
2023-01-17T04:23:18.064Z,96.83
2023-01-17T04:25:45.611Z,96.84
2023-01-17T04:28:13.284Z,96.79
2023-01-17T04:30:40.647Z,96.75
2023-01-17T04:33:07.869Z,96.85
2023-01-17T04:35:36.159Z,96.54
2023-01-17T04:38:03.401Z,96.62
2023-01-17T04:40:30.824Z,96.53
2023-01-17T04:42:58.315Z,96.25
2023-01-17T04:45:25.337Z,96.34
2023-01-17T04:47:52.523Z,96.34
2023-01-17T04:50:19.825Z,96.27
2023-01-17T04:52:47.050Z,96.32
2023-01-17T04:55:14.163Z,96.28
2023-01-17T04:57:41.289Z,96.17
2023-01-17T05:00:10.393Z,96.16
2023-01-17T05:02:37.606Z,95.99
2023-01-17T05:05:04.775Z,95.87
2023-01-17T05:07:31.762Z,95.64
2023-01-17T05:10:01.071Z,95.75
2023-01-17T05:12:28.742Z,95.80
2023-01-17T05:14:55.986Z,95.85
2023-01-17T05:17:23.607Z,95.85
2023-01-17T05:19:51.861Z,95.83
2023-01-17T05:22:18.864Z,95.91
2023-01-17T05:24:47.516Z,95.73
2023-01-17T05:27:15.681Z,95.83
2023-01-17T05:29:42.658Z,95.87
2023-01-17T05:32:10.205Z,95.91
2023-01-17T05:34:37.388Z,95.83
2023-01-17T05:37:04.420Z,95.68
2023-01-17T05:39:32.404Z,95.87
2023-01-17T05:41:59.640Z,95.86
2023-01-17T05:44:27.799Z,95.70
2023-01-17T05:46:55.369Z,95.63
2023-01-17T05:49:22.693Z,95.53
2023-01-17T05:51:49.895Z,95.73
2023-01-17T05:54:17.253Z,95.78
2023-01-17T05:56:44.565Z,95.71
2023-01-17T05:59:14.122Z,95.65
2023-01-17T06:01:41.897Z,95.82
2023-01-17T06:04:09.054Z,95.71
2023-01-17T06:06:36.017Z,95.77
2023-01-17T06:09:03.120Z,96.01
2023-01-17T06:11:30.655Z,95.80
2023-01-17T06:13:57.796Z,95.84
2023-01-17T06:16:25.931Z,96.03
2023-01-17T06:18:53.249Z,96.29
2023-01-17T06:21:20.827Z,96.23
2023-01-17T06:23:47.933Z,96.23
2023-01-17T06:26:15.072Z,96.44
2023-01-17T06:28:42.314Z,96.57
2023-01-17T06:31:10.840Z,96.56
2023-01-17T06:33:38.214Z,96.75
2023-01-17T06:36:06.468Z,96.76
2023-01-17T06:38:33.618Z,96.69
2023-01-17T06:41:04.905Z,96.66
2023-01-17T06:43:33.779Z,96.70
2023-01-17T06:46:01.906Z,96.68
2023-01-17T06:48:29.067Z,96.62
2023-01-17T06:50:56.131Z,96.39
2023-01-17T06:53:23.402Z,96.52
2023-01-17T06:55:50.642Z,96.59
2023-01-17T06:58:17.655Z,96.51
2023-01-17T07:00:45.068Z,96.63
2023-01-17T07:03:21.122Z,96.45
2023-01-17T07:05:49.239Z,96.34
2023-01-17T07:08:17.518Z,96.36
2023-01-17T07:10:45.647Z,96.50
2023-01-17T07:13:13.213Z,96.12
2023-01-17T07:15:40.475Z,95.84
2023-01-17T07:18:08.128Z,95.38
2023-01-17T07:20:35.397Z,95.08
2023-01-17T07:23:02.642Z,94.67
2023-01-17T07:25:29.625Z,94.25
2023-01-17T07:27:58.035Z,93.23
2023-01-17T07:30:25.036Z,92.37
2023-01-17T07:32:55.385Z,91.77
2023-01-17T07:35:22.825Z,91.67
2023-01-17T07:37:53.742Z,91.19
2023-01-17T07:40:22.535Z,90.68
2023-01-17T07:42:50.009Z,89.70
2023-01-17T07:45:18.955Z,88.74
2023-01-17T07:47:45.980Z,88.07
2023-01-17T07:50:14.959Z,87.22
2023-01-17T07:52:42.615Z,86.87
2023-01-17T07:55:12.289Z,86.01
2023-01-17T07:57:39.531Z,84.48
2023-01-17T08:00:09.379Z,84.23
2023-01-17T08:02:39.269Z,83.66
2023-01-17T08:05:07.312Z,83.23
2023-01-17T08:07:34.479Z,83.19
2023-01-17T08:10:01.640Z,81.95
2023-01-17T08:12:29.648Z,81.46
2023-01-17T08:14:56.745Z,81.52
2023-01-17T08:17:24.291Z,81.70
2023-01-17T08:19:52.575Z,81.96
2023-01-17T08:22:19.653Z,81.54
2023-01-17T08:24:46.767Z,81.82
2023-01-17T08:27:13.995Z,81.14
2023-01-17T08:29:46.970Z,80.94
2023-01-17T08:32:14.149Z,81.23
2023-01-17T08:34:41.365Z,81.24
2023-01-17T08:37:08.380Z,81.53
2023-01-17T08:39:35.534Z,81.30
2023-01-17T08:42:02.645Z,80.88
2023-01-17T08:44:30.056Z,80.65
2023-01-17T08:46:57.223Z,80.95
2023-01-17T08:49:25.804Z,80.52
2023-01-17T08:51:52.983Z,80.04
2023-01-17T08:54:20.033Z,80.68
2023-01-17T08:56:48.019Z,80.30
2023-01-17T08:59:15.393Z,79.86
2023-01-17T09:01:42.621Z,80.33
2023-01-17T09:04:10.126Z,80.34
2023-01-17T09:06:39.394Z,80.15
2023-01-17T09:09:08.494Z,80.28
2023-01-17T09:11:36.448Z,80.15
2023-01-17T09:14:03.439Z,80.39
2023-01-17T09:16:31.467Z,80.77
2023-01-17T09:19:00.004Z,81.10
2023-01-17T09:21:27.766Z,81.17
2023-01-17T09:23:55.602Z,81.50
2023-01-17T09:26:25.094Z,81.47
2023-01-17T09:28:52.545Z,81.93
2023-01-17T09:31:21.500Z,81.90
2023-01-17T09:33:48.771Z,81.96
2023-01-17T09:36:15.816Z,82.34
2023-01-17T09:38:43.253Z,81.94
2023-01-17T09:41:27.821Z,82.29
2023-01-17T09:44:02.797Z,82.88
2023-01-17T09:46:33.672Z,83.22
2023-01-17T09:49:08.783Z,82.97
2023-01-17T09:51:36.104Z,83.14
2023-01-17T09:54:03.667Z,82.93
2023-01-17T09:56:36.601Z,83.10
2023-01-17T09:59:20.503Z,82.86
2023-01-17T10:01:56.548Z,83.28
2023-01-17T10:04:40.827Z,83.55
2023-01-17T10:07:20.846Z,83.39
2023-01-17T10:10:05.236Z,83.68
2023-01-17T10:12:41.037Z,83.39
2023-01-17T10:15:25.874Z,83.36
2023-01-17T10:17:59.461Z,83.20
2023-01-17T10:20:41.425Z,83.15
2023-01-17T10:23:25.628Z,83.12
2023-01-17T10:25:55.947Z,83.18
2023-01-17T10:28:27.369Z,83.34
2023-01-17T10:30:57.396Z,83.25
2023-01-17T10:33:30.555Z,83.41
2023-01-17T10:36:00.213Z,83.33
2023-01-17T10:38:32.897Z,83.40
2023-01-17T10:41:05.855Z,83.53
2023-01-17T10:43:41.920Z,82.88
2023-01-17T10:46:20.620Z,83.23
2023-01-17T10:48:51.257Z,83.32
2023-01-17T10:51:49.883Z,83.25
2023-01-17T10:54:29.661Z,83.36
2023-01-17T10:56:56.986Z,83.03
2023-01-17T10:59:31.795Z,82.92
2023-01-17T11:01:59.237Z,82.70
2023-01-17T11:04:32.215Z,82.40
2023-01-17T11:07:15.428Z,82.27
2023-01-17T11:09:44.940Z,82.79
2023-01-17T11:12:24.513Z,82.79
2023-01-17T11:15:23.483Z,82.58
2023-01-17T11:17:53.403Z,82.38
2023-01-17T11:20:24.622Z,82.27
2023-01-17T11:23:06.732Z,82.31
2023-01-17T11:25:35.505Z,82.38
2023-01-17T11:28:05.618Z,82.34
2023-01-17T11:30:32.973Z,82.52
2023-01-17T11:33:03.315Z,82.56
2023-01-17T11:35:32.631Z,82.55
2023-01-17T11:38:18.825Z,82.54
2023-01-17T11:40:47.568Z,82.46
2023-01-17T11:43:27.885Z,82.65
2023-01-17T11:46:08.127Z,82.20
2023-01-17T11:48:39.984Z,82.32
2023-01-17T11:51:20.740Z,82.50
2023-01-17T11:53:49.624Z,82.47
2023-01-17T11:56:24.658Z,82.50
2023-01-17T11:58:52.386Z,82.18
2023-01-17T12:01:34.556Z,82.32
2023-01-17T12:04:29.935Z,81.55
2023-01-17T12:07:17.129Z,81.74
2023-01-17T12:09:51.859Z,81.86
2023-01-17T12:12:48.928Z,81.66
2023-01-17T12:15:30.961Z,81.69
2023-01-17T12:18:11.784Z,81.65
2023-01-17T12:20:48.576Z,82.02
2023-01-17T12:23:31.892Z,82.03
2023-01-17T12:26:13.374Z,82.21
2023-01-17T12:28:59.258Z,82.20
2023-01-17T12:31:35.277Z,82.27
2023-01-17T12:34:14.887Z,82.68
2023-01-17T12:36:49.648Z,82.71
2023-01-17T12:39:18.706Z,82.63
2023-01-17T12:41:58.414Z,82.84
2023-01-17T12:44:39.687Z,82.87
2023-01-17T12:47:07.969Z,83.03
2023-01-17T12:49:42.014Z,83.03
2023-01-17T12:52:16.580Z,83.14
2023-01-17T12:54:50.051Z,83.31
2023-01-17T12:57:20.459Z,83.21
2023-01-17T12:59:53.557Z,82.97
2023-01-17T13:02:33.068Z,82.71
2023-01-17T13:05:06.625Z,82.63
2023-01-17T13:07:43.827Z,82.37
2023-01-17T13:10:22.654Z,82.53
2023-01-17T13:12:52.439Z,82.87
2023-01-17T13:15:24.852Z,82.21
2023-01-17T13:17:57.892Z,82.47
2023-01-17T13:20:32.598Z,82.06
2023-01-17T13:23:09.233Z,81.92
2023-01-17T13:25:42.473Z,81.85
2023-01-17T13:28:30.195Z,81.49
2023-01-17T13:31:20.879Z,81.55
2023-01-17T13:34:18.836Z,81.32
2023-01-17T13:37:04.716Z,81.00
2023-01-17T13:39:50.405Z,80.42
2023-01-17T13:42:26.195Z,80.68
2023-01-17T13:44:53.585Z,80.40
2023-01-17T13:47:40.550Z,80.34
2023-01-17T13:50:29.552Z,79.98
2023-01-17T13:52:58.089Z,79.98
2023-01-17T13:55:53.659Z,79.72
2023-01-17T13:59:03.323Z,79.58
2023-01-17T14:05:06.544Z,79.07
2023-01-17T14:07:36.422Z,79.28
2023-01-17T14:10:17.126Z,79.06
2023-01-17T14:12:44.705Z,79.15
2023-01-17T14:15:22.852Z,78.94
2023-01-17T14:17:57.070Z,79.06
2023-01-17T14:20:49.995Z,79.34
2023-01-17T14:23:36.031Z,78.96
2023-01-17T14:26:20.992Z,79.37
2023-01-17T14:28:48.369Z,79.17
2023-01-17T14:31:19.379Z,79.52
2023-01-17T14:33:46.715Z,79.61
2023-01-17T14:36:26.211Z,79.38
2023-01-17T14:38:53.841Z,79.42
2023-01-17T14:41:25.018Z,79.68
2023-01-17T14:43:53.343Z,79.71
2023-01-17T14:46:26.636Z,79.73
2023-01-17T14:49:01.052Z,79.89
2023-01-17T14:51:28.663Z,79.99
2023-01-17T14:53:57.839Z,80.00
2023-01-17T14:56:25.800Z,80.19
2023-01-17T14:59:07.443Z,80.35
2023-01-17T15:01:36.483Z,80.57
2023-01-17T15:04:03.763Z,80.41
2023-01-17T15:06:39.924Z,80.61
2023-01-17T15:09:14.011Z,80.66
2023-01-17T15:11:42.443Z,80.78
2023-01-17T15:14:14.274Z,80.82
2023-01-17T15:16:41.595Z,80.89
2023-01-17T15:19:15.635Z,80.98
2023-01-17T15:21:44.290Z,81.04
2023-01-17T15:24:20.875Z,81.21
2023-01-17T15:26:47.112Z,81.34
2023-01-17T15:29:21.017Z,81.38
2023-01-17T15:31:51.315Z,81.53
2023-01-17T15:34:28.063Z,81.74
2023-01-17T15:36:58.066Z,81.86
2023-01-17T15:39:30.375Z,82.10
2023-01-17T15:41:58.682Z,82.23
2023-01-17T15:44:47.958Z,82.24
2023-01-17T15:47:30.670Z,82.52
2023-01-17T15:49:59.821Z,82.74
2023-01-17T15:52:26.882Z,82.82
2023-01-17T15:54:55.222Z,83.11
2023-01-17T15:57:29.325Z,83.16
2023-01-17T15:59:59.680Z,83.30
2023-01-17T16:02:42.715Z,83.63
2023-01-17T16:05:43.892Z,83.55
2023-01-17T16:08:38.736Z,83.60
2023-01-17T16:11:07.658Z,83.84
2023-01-17T16:13:37.237Z,83.88
2023-01-17T16:16:23.184Z,84.07
2023-01-17T16:18:59.499Z,84.11
2023-01-17T16:21:29.503Z,84.30
2023-01-17T16:23:57.694Z,84.38
2023-01-17T16:26:25.595Z,84.58
2023-01-17T16:28:53.183Z,84.44
2023-01-17T16:31:21.106Z,84.74
2023-01-17T16:33:49.661Z,84.60
2023-01-17T16:36:21.442Z,84.59
2023-01-17T16:38:52.516Z,84.66
2023-01-17T16:41:19.865Z,84.74
2023-01-17T16:43:48.460Z,84.77
2023-01-17T16:46:16.095Z,84.67
2023-01-17T16:48:43.254Z,84.87
2023-01-17T16:51:11.250Z,84.83
2023-01-17T16:53:38.841Z,85.20
2023-01-17T16:56:13.777Z,85.16
2023-01-17T16:58:41.769Z,85.06
2023-01-17T17:01:15.582Z,85.08
2023-01-17T17:03:42.948Z,84.84
2023-01-17T17:06:10.447Z,85.18
2023-01-17T17:08:38.470Z,85.01
2023-01-17T17:11:14.998Z,85.16
2023-01-17T17:13:43.003Z,84.86
2023-01-17T17:16:15.933Z,85.12
2023-01-17T17:18:43.284Z,85.10
2023-01-17T17:21:10.700Z,84.98
2023-01-17T17:23:37.770Z,85.24
2023-01-17T17:26:05.758Z,85.23
2023-01-17T17:28:32.774Z,85.54
2023-01-17T17:31:11.947Z,85.60
2023-01-17T17:33:39.269Z,85.73
2023-01-17T17:36:10.241Z,85.63
2023-01-17T17:38:38.209Z,85.75
2023-01-17T17:41:10.603Z,85.78
2023-01-17T17:43:43.883Z,85.88
2023-01-17T17:46:11.233Z,85.98
2023-01-17T17:48:38.823Z,85.93
2023-01-17T17:51:06.903Z,86.18
2023-01-17T17:53:34.924Z,86.43
2023-01-17T17:56:07.624Z,86.56
2023-01-17T17:58:36.288Z,86.50
2023-01-17T18:01:07.723Z,86.53
2023-01-17T18:03:35.608Z,86.71
2023-01-17T18:06:09.590Z,86.91
2023-01-17T18:08:37.887Z,86.98
2023-01-17T18:11:07.584Z,87.04
2023-01-17T18:13:35.369Z,87.04
2023-01-17T18:16:07.962Z,87.23
2023-01-17T18:18:35.573Z,87.25
2023-01-17T18:21:13.564Z,87.41
2023-01-17T18:23:42.442Z,87.33
2023-01-17T18:26:16.703Z,87.37
2023-01-17T18:28:43.912Z,87.38
2023-01-17T18:31:11.515Z,87.47
2023-01-17T18:33:48.542Z,87.47
2023-01-17T18:36:15.042Z,87.65
2023-01-17T18:38:44.140Z,87.66
2023-01-17T18:41:21.660Z,87.86
2023-01-17T18:43:50.007Z,87.68
2023-01-17T18:46:18.316Z,87.73
2023-01-17T18:48:46.031Z,87.70
2023-01-17T18:51:16.066Z,87.69
2023-01-17T18:53:45.207Z,87.84
2023-01-17T18:56:14.490Z,87.81
2023-01-17T18:58:43.192Z,87.88
2023-01-17T19:01:10.171Z,87.93
2023-01-17T19:03:38.232Z,87.98
2023-01-17T19:06:06.890Z,87.92
2023-01-17T19:08:35.429Z,88.01
2023-01-17T19:11:04.389Z,87.95
2023-01-17T19:13:32.612Z,88.17
2023-01-17T19:16:04.614Z,88.04
2023-01-17T19:18:32.054Z,88.08
2023-01-17T19:21:04.174Z,88.13
2023-01-17T19:23:31.382Z,88.09
2023-01-17T19:25:58.473Z,88.15
2023-01-17T19:28:25.728Z,88.03
2023-01-17T19:31:02.992Z,88.09
2023-01-17T19:33:29.964Z,88.13
2023-01-17T19:36:01.316Z,88.13
2023-01-17T19:38:28.806Z,87.91
2023-01-17T19:40:56.018Z,88.13
2023-01-17T19:43:23.458Z,88.29
2023-01-17T19:46:01.176Z,88.32
2023-01-17T19:48:29.446Z,88.59
2023-01-17T19:50:56.933Z,88.46
2023-01-17T19:53:24.605Z,88.77
2023-01-17T19:55:51.682Z,89.11
2023-01-17T19:58:18.766Z,88.91
2023-01-17T20:00:46.871Z,88.74
2023-01-17T20:03:14.649Z,88.74
2023-01-17T20:05:41.879Z,88.84
2023-01-17T20:08:10.070Z,88.80
2023-01-17T20:10:37.600Z,88.76
2023-01-17T20:13:05.255Z,88.67
2023-01-17T20:15:32.623Z,88.65
2023-01-17T20:17:59.911Z,88.73
2023-01-17T20:20:26.911Z,88.76
2023-01-17T20:22:54.123Z,88.86
2023-01-17T20:25:21.481Z,88.88
2023-01-17T20:27:48.459Z,88.78
2023-01-17T20:30:20.492Z,88.76
2023-01-17T20:32:48.160Z,88.77
2023-01-17T20:35:16.105Z,88.73
2023-01-17T20:37:43.550Z,88.65
2023-01-17T20:40:13.320Z,88.70
2023-01-17T20:42:40.389Z,88.98
2023-01-17T20:45:09.682Z,89.13
2023-01-17T20:47:37.121Z,89.15
2023-01-17T20:50:05.617Z,89.00
2023-01-17T20:52:32.714Z,89.16
2023-01-17T20:55:00.062Z,89.20
2023-01-17T20:57:27.429Z,89.14
2023-01-17T20:59:54.648Z,89.31
2023-01-17T21:02:22.004Z,89.46
2023-01-17T21:04:49.887Z,89.30
2023-01-17T21:07:17.034Z,89.36
2023-01-17T21:09:44.072Z,89.38
2023-01-17T21:12:11.207Z,89.46
2023-01-17T21:14:40.830Z,89.41
2023-01-17T21:17:07.936Z,89.55
2023-01-17T21:19:34.942Z,89.45
2023-01-17T21:22:02.406Z,89.55
2023-01-17T21:24:29.659Z,89.46
2023-01-17T21:26:57.028Z,89.38
2023-01-17T21:29:29.120Z,89.39
2023-01-17T21:31:56.556Z,89.43
2023-01-17T21:34:25.429Z,89.44
2023-01-17T21:36:52.703Z,89.43
2023-01-17T21:39:21.154Z,89.45
2023-01-17T21:41:50.967Z,89.10
2023-01-17T21:44:20.642Z,88.18
2023-01-17T21:46:48.711Z,88.02
2023-01-17T21:49:17.307Z,88.34
2023-01-17T21:52:03.575Z,88.83
2023-01-17T21:54:49.551Z,89.72
2023-01-17T21:57:36.607Z,90.29
2023-01-17T22:00:04.159Z,90.74
2023-01-17T22:02:39.055Z,90.95
2023-01-17T22:05:08.192Z,90.94
2023-01-17T22:07:35.499Z,90.60
2023-01-17T22:10:02.697Z,90.50
2023-01-17T22:12:29.830Z,90.32
2023-01-17T22:14:56.902Z,90.24
2023-01-17T22:17:24.097Z,90.41
2023-01-17T22:19:51.171Z,90.45
2023-01-17T22:22:18.510Z,90.57
2023-01-17T22:24:45.976Z,90.86
2023-01-17T22:27:13.835Z,91.05
2023-01-17T22:29:40.968Z,91.13
2023-01-17T22:32:08.490Z,91.03
2023-01-17T22:34:35.883Z,91.14
2023-01-17T22:37:04.766Z,91.11
2023-01-17T22:39:32.081Z,91.18
2023-01-17T22:41:59.550Z,91.23
2023-01-17T22:44:26.745Z,91.27
2023-01-17T22:46:54.037Z,91.28
2023-01-17T22:49:23.498Z,91.39
2023-01-17T22:51:50.509Z,91.57
2023-01-17T22:54:18.020Z,91.67
2023-01-17T22:56:45.195Z,91.74
2023-01-17T22:59:12.558Z,91.80
2023-01-17T23:01:40.937Z,91.76
2023-01-17T23:04:08.462Z,91.78
2023-01-17T23:06:37.396Z,91.56
2023-01-17T23:09:08.499Z,91.40
2023-01-17T23:11:41.309Z,91.35
2023-01-17T23:14:09.943Z,91.17
2023-01-17T23:16:54.887Z,91.09
2023-01-17T23:19:25.030Z,91.07
2023-01-17T23:22:10.889Z,90.96
2023-01-17T23:24:39.688Z,90.88
2023-01-17T23:27:24.396Z,90.77
2023-01-17T23:29:51.626Z,90.78
2023-01-17T23:32:18.685Z,90.61
2023-01-17T23:34:47.985Z,90.49
2023-01-17T23:37:15.036Z,90.51
2023-01-17T23:39:42.212Z,90.38
2023-01-17T23:42:27.122Z,90.35
2023-01-17T23:44:54.444Z,90.37
2023-01-17T23:47:21.520Z,90.28
2023-01-17T23:49:49.358Z,90.27
2023-01-17T23:52:16.610Z,90.43
2023-01-17T23:54:43.562Z,90.35
2023-01-17T23:57:10.686Z,90.44
2023-01-17T23:59:38.110Z,90.43
